Aérodrome :
LOGIN :

S'inscrire | Disclaimer

   EN    FR    IT 

 










Légende :    VFR   VFR Marginal   IFR   IFR Intensif   IFR Très Intensif
Visi : 
Plafond : 
>= 8 km
>= 3000ft
5 à 8 km
1000 à 3000 ft
1500m à 5 km
500 à 1000 ft
800 à 1500m
200 à 500 ft
< 800m
< 200 ft
Symboles :   Orages  Brouillard  Fortes neiges  Fortes précipitations  Vent > 20 kt
SIGMETs :   Divers  Orages  Givrage  Turbulence  Onde Orograph.  Cendres Volcan.






- Altitude de l'aérodrome : 235 ft
- Code IATA : BZG


EPBY - Bydgoszcz

DERNIER METAR :
  • 022200Z 13010KT 100V160 9999 OVC012 M03/M06 Q1019

METARs EXPIRÉS :
  • 022130Z 15010KT 9999 OVC012 M03/M06 Q1019
  • 022100Z 16010KT 130V190 9999 OVC012 M03/M06 Q1019
  • 022030Z 15012KT 110V180 9999 OVC013 M02/M06 Q1020
  • 022000Z 13008KT 100V170 9999 OVC013 M02/M05 Q1020
  • 021930Z 13009KT 100V160 9999 OVC012 M02/M05 Q1020

TAF TAF EPBY
Valide du 02 à 18h jusqu'au 03 à 18h UTC


021730Z 0218/0318 12010KT 9999 BKN014
PROB30
TEMPO 0218/0307 5000 BR BKN006
BECMG 0306/0308 BKN020
TEMPO 0311/0318 4000 -SN BR
PROB40
TEMPO 0213/0318 2000 SN BR BKN004 OVC014



MET'MAP, la Météo Aéronautique d'un coup d'oeil ! - Copyright ORBIFLY Décembre 2007 - Disclaimer

ORBIFLY MET'MAP TEAM :

Programmation & Développement : Alexandra Zaïnal
Sur une idée originale de : Baudouin d'Aumeries
Assistance à la programmation : Marc-Olivier Méhu
Soutien technique & logistique : Manuel Goepfert

Contact : metmap@orbifly.com




SOURCES & CREDITS :

   NOAA